Time;durP1;ratioP1;P1;durP2;ratioP2;P2;SDS_P1;SDS_P2;PMS_P1;PMS_P2;Temp;Humidity;BMP_temperature;BMP_pressure;BME280_temperature;BME280_humidity;BME280_pressure;Samples;Min_cycle;Max_cycle;Signal;HPM_P1;HPM_P2
2023/09/22 00:01:46;;;;;;;1999.90;999.90;;;14.70;99.90;;;;;;5086734;28;20097;-76
2023/09/22 00:04:12;;;;;;;1999.90;999.90;;;14.70;99.90;;;;;;5081621;28;20544;-76
2023/09/22 00:06:37;;;;;;;1999.90;999.90;;;14.80;99.90;;;;;;5075821;28;20041;-76
2023/09/22 00:09:05;;;;;;;1999.90;999.90;;;14.80;99.90;;;;;;5075397;28;20033;-76
2023/09/22 00:11:31;;;;;;;1999.90;999.90;;;14.70;99.90;;;;;;5075675;28;20613;-77
2023/09/22 00:13:56;;;;;;;1999.90;999.90;;;14.80;99.90;;;;;;5074200;28;20136;-76
2023/09/22 00:16:22;;;;;;;1999.90;999.90;;;14.80;99.90;;;;;;5080547;28;20032;-76
2023/09/22 00:18:47;;;;;;;1999.90;999.90;;;14.80;99.90;;;;;;5095633;28;20112;-76
2023/09/22 00:21:14;;;;;;;1999.90;999.90;;;14.70;99.90;;;;;;5095902;28;20410;-76
2023/09/22 00:23:39;;;;;;;1999.90;999.90;;;14.70;99.90;;;;;;5095839;28;20036;-76
2023/09/22 00:26:05;;;;;;;1999.90;999.90;;;14.60;99.90;;;;;;5089115;28;20040;-76
2023/09/22 00:28:30;;;;;;;1999.90;999.90;;;14.70;99.90;;;;;;5075181;28;20032;-76
2023/09/22 00:30:56;;;;;;;1999.90;999.90;;;14.80;99.90;;;;;;5075317;28;20029;-76
2023/09/22 00:33:21;;;;;;;1999.90;999.90;;;14.60;99.90;;;;;;5081975;28;20048;-76
2023/09/22 00:35:47;;;;;;;1999.90;999.90;;;14.60;99.90;;;;;;5075063;28;20052;-76
2023/09/22 00:38:12;;;;;;;1999.90;999.90;;;14.60;99.90;;;;;;5073730;28;20394;-76
2023/09/22 00:40:38;;;;;;;1999.90;999.90;;;14.60;99.90;;;;;;5075247;28;20514;-76
2023/09/22 00:43:09;;;;;;;1999.90;999.90;;;14.60;99.90;;;;;;5075147;28;20486;-76
2023/09/22 00:45:40;;;;;;;1999.90;999.90;;;14.50;99.90;;;;;;5079987;28;20040;-76
2023/09/22 00:48:06;;;;;;;1999.90;999.90;;;14.50;99.90;;;;;;5085282;28;20032;-75
2023/09/22 00:50:31;;;;;;;1999.90;999.90;;;14.50;99.90;;;;;;5093743;28;20036;-76
2023/09/22 00:52:57;;;;;;;1999.90;999.90;;;14.60;99.90;;;;;;5086676;28;20094;-76
2023/09/22 00:55:23;;;;;;;1999.90;999.90;;;14.60;99.90;;;;;;5077784;28;20044;-76
2023/09/22 00:57:50;;;;;;;1999.90;999.90;;;14.50;99.90;;;;;;5094413;28;20045;-76
2023/09/22 01:00:18;;;;;;;1999.90;999.90;;;14.50;99.90;;;;;;5090892;28;20029;-76
2023/09/22 01:02:43;;;;;;;1999.90;999.90;;;14.50;99.90;;;;;;5073390;28;20063;-76
2023/09/22 01:05:09;;;;;;;1999.90;999.90;;;14.60;99.90;;;;;;5084386;28;20441;-76
2023/09/22 01:07:35;;;;;;;1999.90;999.90;;;14.70;99.90;;;;;;5094621;28;20441;-76
2023/09/22 01:10:08;;;;;;;1999.90;999.90;;;14.70;99.90;;;;;;5094657;28;20033;-76
2023/09/22 01:12:34;;;;;;;1999.90;999.90;;;14.70;99.90;;;;;;5094416;28;20041;-76
2023/09/22 01:15:00;;;;;;;1999.90;999.90;;;14.70;99.90;;;;;;5094899;28;20028;-75
2023/09/22 01:17:26;;;;;;;1999.90;999.90;;;14.60;99.90;;;;;;5094822;28;20029;-76
2023/09/22 01:19:51;;;;;;;1999.90;999.90;;;14.60;99.90;;;;;;5094955;28;20037;-75
2023/09/22 01:22:17;;;;;;;1999.90;999.90;;;14.60;99.90;;;;;;5078403;28;20040;-76
2023/09/22 01:24:43;;;;;;;1999.90;999.90;;;14.60;99.90;;;;;;5074694;28;20052;-76
2023/09/22 01:27:09;;;;;;;1999.90;999.90;;;14.60;99.90;;;;;;5092078;28;20067;-76
2023/09/22 01:29:34;;;;;;;1999.90;999.90;;;14.60;99.90;;;;;;5094452;28;20036;-75
2023/09/22 01:32:00;;;;;;;1999.90;999.90;;;14.60;99.90;;;;;;5084896;28;20045;-76
2023/09/22 01:34:26;;;;;;;1999.90;999.90;;;14.60;99.90;;;;;;5073128;28;20037;-76
2023/09/22 01:36:52;;;;;;;1999.90;999.90;;;14.70;99.90;;;;;;5091972;28;20375;-76
2023/09/22 01:39:18;;;;;;;1999.90;999.90;;;14.80;99.90;;;;;;5054147;28;20403;-76
2023/09/22 01:41:44;;;;;;;1999.90;999.90;;;14.80;99.90;;;;;;5062557;28;20098;-76
2023/09/22 01:44:10;;;;;;;1999.90;999.90;;;14.80;99.90;;;;;;5074556;28;20036;-75
2023/09/22 01:46:36;;;;;;;1999.90;999.90;;;14.90;99.90;;;;;;5074445;28;20036;-76
2023/09/22 01:49:02;;;;;;;1999.90;999.90;;;15.00;99.90;;;;;;5074106;28;20529;-76
2023/09/22 01:51:27;;;;;;;1999.90;999.90;;;15.00;99.90;;;;;;5089300;28;20028;-76
2023/09/22 01:53:55;;;;;;;1999.90;999.90;;;15.00;99.90;;;;;;5092957;28;20051;-75
2023/09/22 01:56:21;;;;;;;1999.90;999.90;;;15.00;99.90;;;;;;5088540;28;20045;-75
2023/09/22 01:58:48;;;;;;;1999.90;999.90;;;15.10;99.90;;;;;;5072499;28;20083;-75
2023/09/22 02:01:14;;;;;;;1999.90;999.90;;;15.00;99.90;;;;;;5072826;28;20520;-75
2023/09/22 02:03:40;;;;;;;1999.90;999.90;;;15.00;99.90;;;;;;5074129;28;20047;-76
2023/09/22 02:06:05;;;;;;;1999.90;999.90;;;15.00;99.90;;;;;;5087871;28;20044;-76
2023/09/22 02:08:31;;;;;;;1999.90;999.90;;;15.00;99.90;;;;;;5082622;28;20044;-76
2023/09/22 02:10:57;;;;;;;1999.90;999.90;;;14.90;99.90;;;;;;5077533;28;20029;-75
2023/09/22 02:13:22;;;;;;;1999.90;999.90;;;14.80;99.90;;;;;;5098153;28;20040;-75
2023/09/22 02:15:48;;;;;;;1999.90;999.90;;;14.70;99.90;;;;;;5097514;28;20031;-75
2023/09/22 02:18:14;;;;;;;1999.90;999.90;;;14.70;99.90;;;;;;5077385;28;20167;-76
2023/09/22 02:20:41;;;;;;;1999.90;999.90;;;14.60;99.90;;;;;;5077786;28;20371;-75
2023/09/22 02:23:07;;;;;;;1999.90;999.90;;;14.50;99.90;;;;;;5077539;28;20041;-75
2023/09/22 02:25:33;;;;;;;1999.90;999.90;;;14.40;99.90;;;;;;5076127;28;20025;-76
2023/09/22 02:27:59;;;;;;;1999.90;999.90;;;14.40;99.90;;;;;;5077078;28;20044;-76
2023/09/22 02:30:26;;;;;;;1999.90;999.90;;;14.40;99.90;;;;;;5085937;28;20067;-75
2023/09/22 02:32:51;;;;;;;1999.90;999.90;;;14.30;99.90;;;;;;5097738;28;20495;-76
2023/09/22 02:35:18;;;;;;;1999.90;999.90;;;14.20;99.90;;;;;;5097854;28;20143;-76
2023/09/22 02:37:44;;;;;;;1999.90;999.90;;;14.20;99.90;;;;;;5097076;28;20397;-75
2023/09/22 02:40:13;;;;;;;1999.90;999.90;;;14.20;99.90;;;;;;5097686;28;20040;-76
2023/09/22 02:42:38;;;;;;;1999.90;999.90;;;14.10;99.90;;;;;;5090012;28;20040;-75
2023/09/22 02:45:06;;;;;;;1999.90;999.90;;;14.10;99.90;;;;;;5077429;28;20059;-75
2023/09/22 02:47:31;;;;;;;1999.90;999.90;;;14.20;99.90;;;;;;5075541;28;20044;-75
2023/09/22 02:49:57;;;;;;;1999.90;999.90;;;14.10;99.90;;;;;;5076783;28;20036;-75
2023/09/22 02:52:22;;;;;;;1999.90;999.90;;;14.10;99.90;;;;;;5078376;28;20068;-76
2023/09/22 02:54:54;;;;;;;1999.90;999.90;;;14.10;99.90;;;;;;5077023;28;20479;-75
2023/09/22 02:57:20;;;;;;;1999.90;999.90;;;14.20;99.90;;;;;;5082819;28;20418;-76
2023/09/22 02:59:46;;;;;;;1999.90;999.90;;;14.20;99.90;;;;;;5097238;28;20029;-76
2023/09/22 03:02:13;;;;;;;1999.90;999.90;;;14.20;99.90;;;;;;5097337;28;20037;-76
2023/09/22 03:04:40;;;;;;;1999.90;999.90;;;14.20;99.90;;;;;;5097347;28;20438;-75
2023/09/22 03:07:05;;;;;;;1999.90;999.90;;;14.20;99.90;;;;;;5092652;28;20120;-75
2023/09/22 03:09:31;;;;;;;1999.90;999.90;;;14.20;99.90;;;;;;5077315;28;20486;-76
2023/09/22 03:11:57;;;;;;;1999.90;999.90;;;14.20;99.90;;;;;;5094443;28;20438;-75
2023/09/22 03:14:22;;;;;;;1999.90;999.90;;;14.20;99.90;;;;;;5097263;28;20033;-76
2023/09/22 03:16:48;;;;;;;1999.90;999.90;;;14.10;99.90;;;;;;5096673;28;20033;-75
2023/09/22 03:19:13;;;;;;;1999.90;999.90;;;14.10;99.90;;;;;;5095198;28;20039;-76
2023/09/22 03:21:39;;;;;;;1999.90;999.90;;;14.10;99.90;;;;;;5096910;28;20039;-76
2023/09/22 03:24:06;;;;;;;1999.90;999.90;;;14.00;99.90;;;;;;5084447;28;20037;-76
2023/09/22 03:26:31;;;;;;;1999.90;999.90;;;14.00;99.90;;;;;;5074990;28;20096;-76
2023/09/22 03:28:57;;;;;;;1999.90;999.90;;;14.00;99.90;;;;;;5076528;28;20398;-76
2023/09/22 03:31:23;;;;;;;1999.90;999.90;;;14.00;99.90;;;;;;5078203;28;20532;-75
2023/09/22 03:33:48;;;;;;;1999.90;999.90;;;14.00;99.90;;;;;;5096943;28;20097;-75
2023/09/22 03:36:15;;;;;;;1999.90;999.90;;;14.00;99.90;;;;;;5085816;28;20560;-76
2023/09/22 03:38:41;;;;;;;1999.90;999.90;;;14.00;99.90;;;;;;5085171;28;20028;-75
2023/09/22 03:41:07;;;;;;;1999.90;999.90;;;13.90;99.90;;;;;;5083822;28;20040;-75
2023/09/22 03:43:34;;;;;;;1999.90;999.90;;;13.90;99.90;;;;;;5075037;28;20037;-76
2023/09/22 03:46:00;;;;;;;1999.90;999.90;;;13.90;99.90;;;;;;5091732;28;20599;-76
2023/09/22 03:48:26;;;;;;;1999.90;999.90;;;14.00;99.90;;;;;;5081002;28;20122;-75
2023/09/22 03:50:52;;;;;;;1999.90;999.90;;;14.00;99.90;;;;;;5074650;28;20025;-76
2023/09/22 03:53:18;;;;;;;1999.90;999.90;;;14.00;99.90;;;;;;5093348;28;20044;-76
2023/09/22 03:55:46;;;;;;;1999.90;999.90;;;13.90;99.90;;;;;;5095777;28;20044;-76
2023/09/22 03:58:12;;;;;;;1999.90;999.90;;;13.90;99.90;;;;;;5077767;28;20025;-76
2023/09/22 04:00:37;;;;;;;1999.90;999.90;;;13.90;99.90;;;;;;5092757;28;20441;-76
2023/09/22 04:03:05;;;;;;;1999.90;999.90;;;13.90;99.90;;;;;;5092030;28;20032;-76
2023/09/22 04:05:30;;;;;;;1999.90;999.90;;;13.90;99.90;;;;;;5096031;28;20521;-75
2023/09/22 04:07:57;;;;;;;1999.90;999.90;;;13.90;99.90;;;;;;5096064;28;20033;-75
2023/09/22 04:10:23;;;;;;;1999.90;999.90;;;13.80;99.90;;;;;;5080973;28;20051;-76
2023/09/22 04:12:49;;;;;;;1999.90;999.90;;;13.80;99.90;;;;;;5075867;28;20128;-75
2023/09/22 04:15:15;;;;;;;1999.90;999.90;;;13.80;99.90;;;;;;5075417;28;20077;-76
2023/09/22 04:17:40;;;;;;;1999.90;999.90;;;13.80;99.90;;;;;;5075709;28;20035;-75
2023/09/22 04:20:08;;;;;;;1999.90;999.90;;;13.70;99.90;;;;;;5086798;28;20414;-75
2023/09/22 04:22:37;;;;;;;1999.90;999.90;;;13.70;99.90;;;;;;5096115;28;20028;-75
2023/09/22 04:25:10;;;;;;;1999.90;999.90;;;13.70;99.90;;;;;;5095895;28;20033;-76
2023/09/22 04:27:42;;;;;;;1999.90;999.90;;;13.70;99.90;;;;;;5095993;28;20063;-76
2023/09/22 04:30:09;;;;;;;1999.90;999.90;;;13.70;99.90;;;;;;5092480;28;20071;-76
2023/09/22 04:32:36;;;;;;;1999.90;999.90;;;13.70;99.90;;;;;;5075396;28;20536;-76
2023/09/22 04:35:09;;;;;;;1999.90;999.90;;;13.70;99.90;;;;;;5075540;28;20112;-76
2023/09/22 04:37:35;;;;;;;1999.90;999.90;;;13.70;99.90;;;;;;5094135;28;20036;-76
2023/09/22 04:40:01;;;;;;;1999.90;999.90;;;13.60;99.90;;;;;;5088064;28;20044;-76
2023/09/22 04:42:27;;;;;;;1999.90;999.90;;;13.60;99.90;;;;;;5081527;28;20087;-76
2023/09/22 04:44:52;;;;;;;1999.90;999.90;;;13.70;99.90;;;;;;5081552;28;20398;-76
2023/09/22 04:47:18;;;;;;;1999.90;999.90;;;13.60;99.90;;;;;;5095557;28;20044;-75
2023/09/22 04:49:44;;;;;;;1999.90;999.90;;;13.60;99.90;;;;;;5093805;28;20040;-75
2023/09/22 04:52:10;;;;;;;1999.90;999.90;;;13.60;99.90;;;;;;5095279;28;20509;-75
2023/09/22 04:54:36;;;;;;;1999.90;999.90;;;13.60;99.90;;;;;;5094347;28;20040;-78
2023/09/22 04:57:02;;;;;;;1999.90;999.90;;;13.60;99.90;;;;;;5095086;28;20028;-75
2023/09/22 04:59:28;;;;;;;1999.90;999.90;;;13.60;99.90;;;;;;5095264;28;20036;-74
2023/09/22 05:01:54;;;;;;;1999.90;999.90;;;13.60;99.90;;;;;;5077575;28;20064;-76
2023/09/22 05:04:23;;;;;;;1999.90;999.90;;;13.60;99.90;;;;;;5075079;28;20037;-76
2023/09/22 05:06:49;;;;;;;1999.90;999.90;;;13.60;99.90;;;;;;5076716;28;20552;-75
2023/09/22 05:09:15;;;;;;;1999.90;999.90;;;13.60;99.90;;;;;;5078824;28;20067;-75
2023/09/22 05:11:41;;;;;;;1999.90;999.90;;;13.50;99.90;;;;;;5090801;28;20127;-75
2023/09/22 05:14:06;;;;;;;1999.90;999.90;;;13.60;99.90;;;;;;5075167;28;20502;-80
2023/09/22 05:16:32;;;;;;;1999.90;999.90;;;13.70;99.90;;;;;;5075511;28;20040;-74
2023/09/22 05:18:59;;;;;;;1999.90;999.90;;;13.60;99.90;;;;;;5091388;28;20536;-74
2023/09/22 05:21:25;;;;;;;1999.90;999.90;;;13.60;99.90;;;;;;5074695;28;20474;-74
2023/09/22 05:23:51;;;;;;;1999.90;999.90;;;13.60;99.90;;;;;;5074016;28;20036;-75
2023/09/22 05:26:16;;;;;;;1999.90;999.90;;;13.70;99.90;;;;;;5074600;28;20534;-74
2023/09/22 05:28:42;;;;;;;1999.90;999.90;;;13.80;99.90;;;;;;5073136;28;20044;-74
2023/09/22 05:31:08;;;;;;;1999.90;999.90;;;13.80;99.90;;;;;;5084288;28;20036;-75
2023/09/22 05:33:36;;;;;;;1999.90;999.90;;;13.80;99.90;;;;;;5074963;28;20387;-75
2023/09/22 05:36:02;;;;;;;1999.90;999.90;;;13.80;99.90;;;;;;5073708;28;20043;-78
2023/09/22 05:38:29;;;;;;;1999.90;999.90;;;13.80;99.90;;;;;;5075926;28;20097;-78
2023/09/22 05:40:55;;;;;;;1999.90;999.90;;;13.80;99.90;;;;;;5079434;28;20143;-75
2023/09/22 05:43:22;;;;;;;1999.90;999.90;;;13.80;99.90;;;;;;5096492;28;20036;-74
2023/09/22 05:45:57;;;;;;;1999.90;999.90;;;13.80;99.90;;;;;;5097008;28;20074;-74
2023/09/22 05:48:23;;;;;;;1999.90;999.90;;;13.70;99.90;;;;;;5095035;28;20130;-75
2023/09/22 05:50:59;;;;;;;1999.90;999.90;;;13.70;99.90;;;;;;5095612;28;20063;-76
2023/09/22 05:53:25;;;;;;;1999.90;999.90;;;13.80;99.90;;;;;;5089548;28;20071;-76
2023/09/22 05:56:08;;;;;;;1999.90;999.90;;;13.80;99.90;;;;;;5070646;28;20029;-75
2023/09/22 05:58:34;;;;;;;1999.90;999.90;;;13.80;99.90;;;;;;5073350;28;20080;-77
2023/09/22 06:01:09;;;;;;;1999.90;999.90;;;13.80;99.90;;;;;;5074494;28;20037;-75
2023/09/22 06:03:37;;;;;;;1999.90;999.90;;;13.80;99.90;;;;;;5074449;28;20526;-74
2023/09/22 06:06:13;;;;;;;1999.90;999.90;;;13.70;99.90;;;;;;5074441;28;20430;-74
2023/09/22 06:08:41;;;;;;;1999.90;999.90;;;13.80;99.90;;;;;;5072571;28;20068;-74
2023/09/22 06:11:08;;;;;;;1999.90;999.90;;;13.90;99.90;;;;;;5073837;28;20033;-75
2023/09/22 06:13:34;;;;;;;1999.90;999.90;;;13.90;99.90;;;;;;5075004;28;20450;-75
2023/09/22 06:16:00;;;;;;;1999.90;999.90;;;13.90;99.90;;;;;;5072983;28;20033;-77
2023/09/22 06:18:26;;;;;;;1999.90;999.90;;;13.90;99.90;;;;;;5073614;28;20036;-76
2023/09/22 06:20:59;;;;;;;1999.90;999.90;;;13.90;99.90;;;;;;5073434;28;20052;-75
2023/09/22 06:23:27;;;;;;;1999.90;999.90;;;14.00;99.90;;;;;;5073115;28;20920;-75
2023/09/22 06:25:54;;;;;;;1999.90;999.90;;;14.00;99.90;;;;;;5074121;28;20040;-75
2023/09/22 06:28:20;;;;;;;1999.90;999.90;;;14.00;99.90;;;;;;5072798;28;20032;-77
2023/09/22 06:30:46;;;;;;;1999.90;999.90;;;14.00;99.90;;;;;;5075100;28;20502;-75
2023/09/22 06:33:16;;;;;;;1999.90;999.90;;;14.10;99.90;;;;;;5073492;28;20297;-76
2023/09/22 06:35:43;;;;;;;1999.90;999.90;;;14.10;99.90;;;;;;5074404;28;20403;-75
2023/09/22 06:38:09;;;;;;;1999.90;999.90;;;14.10;99.90;;;;;;5073922;28;20033;-76
2023/09/22 06:40:36;;;;;;;1999.90;999.90;;;14.10;99.90;;;;;;5074471;28;20482;-74
2023/09/22 06:43:03;;;;;;;1999.90;999.90;;;14.10;99.90;;;;;;5074158;28;20115;-75
2023/09/22 06:45:32;;;;;;;1999.90;999.90;;;14.20;99.90;;;;;;5074054;28;20055;-75
2023/09/22 06:47:59;;;;;;;1999.90;999.90;;;14.20;99.90;;;;;;5074113;28;20032;-74
2023/09/22 06:50:25;;;;;;;1999.90;999.90;;;14.10;99.90;;;;;;5075086;28;20033;-74
2023/09/22 06:52:51;;;;;;;1999.90;999.90;;;14.10;99.90;;;;;;5076425;28;20047;-75
2023/09/22 06:55:18;;;;;;;1999.90;999.90;;;14.20;99.90;;;;;;5079833;28;20021;-75
2023/09/22 06:57:44;;;;;;;1999.90;999.90;;;14.20;99.90;;;;;;5078794;28;20512;-75
2023/09/22 07:00:18;;;;;;;1999.90;999.90;;;14.20;99.90;;;;;;5077982;28;20044;-75
2023/09/22 07:02:46;;;;;;;1999.90;999.90;;;14.10;99.90;;;;;;5078055;28;20029;-75
2023/09/22 07:05:12;;;;;;;1999.90;999.90;;;14.10;99.90;;;;;;5077665;28;20179;-74
2023/09/22 07:07:38;;;;;;;1999.90;999.90;;;14.20;99.90;;;;;;5077287;28;20032;-77
2023/09/22 07:10:09;;;;;;;1999.90;999.90;;;14.20;99.90;;;;;;5076913;28;20040;-74
2023/09/22 07:12:36;;;;;;;1999.90;999.90;;;14.30;99.90;;;;;;5077322;28;20041;-75
2023/09/22 07:15:02;;;;;;;1999.90;999.90;;;14.40;99.90;;;;;;5077845;28;20029;-75
2023/09/22 07:17:28;;;;;;;1999.90;999.90;;;14.40;99.90;;;;;;5077387;28;20046;-75
2023/09/22 07:19:53;;;;;;;1999.90;999.90;;;14.50;99.90;;;;;;5076916;28;20064;-76
2023/09/22 07:22:19;;;;;;;1999.90;999.90;;;14.60;99.90;;;;;;5077091;28;20069;-77
2023/09/22 07:24:45;;;;;;;1999.90;999.90;;;14.70;99.90;;;;;;5077377;28;20120;-76
2023/09/22 07:27:10;;;;;;;1999.90;999.90;;;14.80;99.90;;;;;;5076945;28;20065;-76
2023/09/22 07:29:36;;;;;;;1999.90;999.90;;;14.90;99.90;;;;;;5075231;28;20121;-76
2023/09/22 07:32:03;;;;;;;1999.90;999.90;;;15.40;99.90;;;;;;5075276;28;20063;-77
2023/09/22 07:34:29;;;;;;;1999.90;999.90;;;15.50;99.90;;;;;;5077235;28;20045;-76
2023/09/22 07:36:54;;;;;;;1999.90;999.90;;;15.60;99.90;;;;;;5075813;28;20060;-77
2023/09/22 07:39:21;;;;;;;1999.90;999.90;;;15.20;99.90;;;;;;5078365;28;20064;-76
2023/09/22 07:41:46;;;;;;;1999.90;999.90;;;15.10;99.90;;;;;;5075747;28;20763;-76
2023/09/22 07:44:12;;;;;;;1999.90;999.90;;;14.90;99.90;;;;;;5077337;28;20307;-76
2023/09/22 07:46:41;;;;;;;1999.90;999.90;;;14.90;99.90;;;;;;5077280;28;20475;-76
2023/09/22 07:49:06;;;;;;;1999.90;999.90;;;15.00;99.90;;;;;;5091721;22;20064;-77
2023/09/22 07:51:33;;;;;;;1999.90;999.90;;;15.00;99.90;;;;;;5092445;28;20091;-77
2023/09/22 07:53:59;;;;;;;1999.90;999.90;;;15.20;99.90;;;;;;5076835;28;20090;-78
2023/09/22 07:56:25;;;;;;;1999.90;999.90;;;15.50;99.90;;;;;;5076528;28;20393;-77
2023/09/22 07:58:50;;;;;;;1999.90;999.90;;;15.80;99.90;;;;;;5076247;28;20124;-77
2023/09/22 08:01:18;;;;;;;1999.90;999.90;;;15.90;99.90;;;;;;5074884;28;20517;-78
2023/09/22 08:03:44;;;;;;;1999.90;999.90;;;16.20;99.90;;;;;;5076248;28;20032;-78
2023/09/22 08:06:13;;;;;;;1999.90;999.90;;;16.50;99.90;;;;;;5074422;28;20029;-77
2023/09/22 08:08:39;;;;;;;1999.90;999.90;;;16.40;99.90;;;;;;5076290;28;20036;-77
2023/09/22 08:11:04;;;;;;;1999.90;999.90;;;16.40;99.90;;;;;;5076241;28;20040;-77
2023/09/22 08:13:33;;;;;;;1999.90;999.90;;;16.30;99.90;;;;;;5074484;28;20124;-77
2023/09/22 08:16:00;;;;;;;1999.90;999.90;;;16.30;99.90;;;;;;5075821;28;20029;-77
2023/09/22 08:18:25;;;;;;;1999.90;999.90;;;16.10;99.90;;;;;;5075938;28;20103;-77
2023/09/22 08:20:51;;;;;;;1999.90;999.90;;;16.00;99.90;;;;;;5076109;28;20080;-77
2023/09/22 08:23:17;;;;;;;1999.90;999.90;;;15.90;99.90;;;;;;5076160;28;20048;-77
2023/09/22 08:25:46;;;;;;;1999.90;999.90;;;15.80;99.90;;;;;;5074425;28;20032;-77
2023/09/22 08:28:13;;;;;;;1999.90;999.90;;;15.70;99.90;;;;;;5074832;28;20033;-76
2023/09/22 08:30:39;;;;;;;1999.90;999.90;;;15.70;99.90;;;;;;5074335;28;20502;-77
2023/09/22 08:33:05;;;;;;;1999.90;999.90;;;15.80;99.90;;;;;;5074382;28;20052;-77
2023/09/22 08:35:31;;;;;;;1999.90;999.90;;;15.90;99.90;;;;;;5075766;28;20059;-77
2023/09/22 08:37:57;;;;;;;1999.90;999.90;;;16.10;99.90;;;;;;5075629;28;20032;-77
2023/09/22 08:40:22;;;;;;;1999.90;999.90;;;16.30;99.90;;;;;;5074067;28;20032;-77
2023/09/22 08:42:51;;;;;;;1999.90;999.90;;;16.40;99.90;;;;;;5074162;28;20475;-77
2023/09/22 08:45:16;;;;;;;1999.90;999.90;;;16.70;99.90;;;;;;5074285;28;20078;-77
2023/09/22 08:47:45;;;;;;;1999.90;999.90;;;17.00;99.90;;;;;;5075436;28;20615;-77
2023/09/22 08:50:18;;;;;;;1999.90;999.90;;;17.20;99.90;;;;;;5074882;28;20033;-77
2023/09/22 08:52:52;;;;;;;1999.90;999.90;;;17.40;99.90;;;;;;5075587;28;20072;-77
2023/09/22 08:55:19;;;;;;;1999.90;999.90;;;17.30;99.90;;;;;;5076233;28;20475;-77
2023/09/22 08:57:46;;;;;;;1999.90;999.90;;;17.30;99.90;;;;;;5075943;28;20041;-77
2023/09/22 09:00:18;;;;;;;1999.90;999.90;;;17.40;99.90;;;;;;5075883;28;20033;-77
2023/09/22 09:02:44;;;;;;;1999.90;999.90;;;17.20;99.90;;;;;;5075777;28;20029;-77
2023/09/22 09:05:20;;;;;;;1999.90;999.90;;;17.10;99.90;;;;;;5075869;28;20040;-77
2023/09/22 09:07:49;;;;;;;1999.90;999.90;;;17.00;99.90;;;;;;5075247;28;20456;-77
2023/09/22 09:10:33;;;;;;;1999.90;999.90;;;16.90;99.90;;;;;;5075167;28;20033;-77
2023/09/22 09:13:02;;;;;;;1999.90;999.90;;;16.80;99.90;;;;;;5075607;28;20071;-77
2023/09/22 09:15:30;;;;;;;1999.90;999.90;;;16.70;99.90;;;;;;5074886;28;20112;-78
2023/09/22 09:18:08;;;;;;;1999.90;999.90;;;16.70;99.90;;;;;;5073902;28;20033;-77
2023/09/22 09:20:40;;;;;;;1999.90;999.90;;;16.60;99.90;;;;;;5073288;28;20402;-77
2023/09/22 09:23:20;;;;;;;1999.90;999.90;;;16.60;99.90;;;;;;5075275;28;20477;-77
2023/09/22 09:25:53;;;;;;;1999.90;999.90;;;16.20;99.90;;;;;;5074212;28;20025;-77
2023/09/22 09:28:19;;;;;;;1999.90;999.90;;;15.90;99.90;;;;;;5075264;28;20078;-78
2023/09/22 09:30:58;;;;;;;1999.90;999.90;;;15.80;99.90;;;;;;5075059;28;20475;-78
2023/09/22 09:33:30;;;;;;;1999.90;999.90;;;15.70;99.90;;;;;;5075214;28;20037;-78
2023/09/22 09:35:56;;;;;;;1999.90;999.90;;;15.80;99.90;;;;;;5074934;28;20021;-78
2023/09/22 09:38:27;;;;;;;1999.90;999.90;;;15.90;99.90;;;;;;5073280;28;20033;-77
2023/09/22 09:40:54;;;;;;;1999.90;999.90;;;16.00;99.90;;;;;;5074825;28;20067;-77
2023/09/22 09:43:20;;;;;;;1999.90;999.90;;;15.90;99.90;;;;;;5074946;28;20033;-78
2023/09/22 09:45:56;;;;;;;1999.90;999.90;;;16.20;99.90;;;;;;5073052;28;20063;-77
2023/09/22 09:48:22;;;;;;;1999.90;999.90;;;16.00;99.90;;;;;;5074762;28;20029;-79
2023/09/22 09:50:52;;;;;;;1999.90;999.90;;;16.00;99.90;;;;;;5074555;28;20767;-77
2023/09/22 09:53:41;;;;;;;1999.90;999.90;;;16.10;99.90;;;;;;5075401;28;20127;-77
2023/09/22 09:56:07;;;;;;;1999.90;999.90;;;16.10;99.90;;;;;;5073279;28;20032;-77
2023/09/22 09:58:38;;;;;;;1999.90;999.90;;;16.10;99.90;;;;;;5074659;28;20033;-77
2023/09/22 10:01:05;;;;;;;1999.90;999.90;;;15.90;99.90;;;;;;5073239;28;20569;-77
2023/09/22 10:03:33;;;;;;;1999.90;999.90;;;15.90;99.90;;;;;;5074696;28;20068;-77
2023/09/22 10:06:03;;;;;;;1999.90;999.90;;;16.20;99.90;;;;;;5073507;28;20033;-78
2023/09/22 10:08:29;;;;;;;1999.90;999.90;;;16.90;99.90;;;;;;5073196;28;20068;-77
2023/09/22 10:10:59;;;;;;;1999.90;999.90;;;17.30;99.90;;;;;;5074763;28;20068;-78
2023/09/22 10:13:25;;;;;;;1999.90;999.90;;;17.40;99.90;;;;;;5074226;28;20095;-78
2023/09/22 10:15:58;;;;;;;1999.90;999.90;;;17.60;99.90;;;;;;5074352;28;20025;-77
2023/09/22 10:18:47;;;;;;;1999.90;999.90;;;17.60;99.90;;;;;;5074398;28;20036;-78
2023/09/22 10:21:38;;;;;;;1999.90;999.90;;;17.90;99.90;;;;;;5073252;28;20060;-78
2023/09/22 10:24:29;;;;;;;1999.90;999.90;;;17.70;99.90;;;;;;5074999;28;20037;-78
2023/09/22 10:27:06;;;;;;;1999.90;999.90;;;17.60;99.90;;;;;;5074936;28;20033;-78
2023/09/22 10:29:37;;;;;;;1999.90;999.90;;;17.70;99.90;;;;;;5077124;28;20032;-78
2023/09/22 10:32:15;;;;;;;1999.90;999.90;;;17.50;99.90;;;;;;5078756;28;20486;-78
2023/09/22 10:34:57;;;;;;;1999.90;999.90;;;17.40;99.90;;;;;;5078254;28;20100;-77
2023/09/22 10:37:28;;;;;;;1999.90;999.90;;;17.30;99.90;;;;;;5077833;28;20069;-77
2023/09/22 10:40:19;;;;;;;1999.90;999.90;;;17.20;99.90;;;;;;5077940;28;20494;-78
2023/09/22 10:42:51;;;;;;;1999.90;999.90;;;17.30;99.90;;;;;;5078193;28;20116;-76
2023/09/22 10:45:21;;;;;;;1999.90;999.90;;;17.30;99.90;;;;;;5077785;28;20481;-75
2023/09/22 10:47:54;;;;;;;1999.90;999.90;;;17.40;99.90;;;;;;5075823;28;20053;-75
2023/09/22 10:50:31;;;;;;;1999.90;999.90;;;17.50;99.90;;;;;;5076970;28;20514;-76
2023/09/22 10:53:06;;;;;;;1999.90;999.90;;;17.30;99.90;;;;;;5076013;28;20481;-76
2023/09/22 10:55:34;;;;;;;1999.90;999.90;;;17.20;99.90;;;;;;5075877;28;20111;-75
2023/09/22 10:58:03;;;;;;;1999.90;999.90;;;17.30;99.90;;;;;;5075671;28;20116;-75
2023/09/22 11:00:32;;;;;;;1999.90;999.90;;;17.10;99.90;;;;;;5076708;28;20059;-75
2023/09/22 11:03:08;;;;;;;1999.90;999.90;;;17.00;99.90;;;;;;5077234;28;20033;-76
2023/09/22 11:05:35;;;;;;;1999.90;999.90;;;17.00;99.90;;;;;;5077532;28;20170;-75
2023/09/22 11:08:01;;;;;;;1999.90;999.90;;;17.00;99.90;;;;;;5076958;28;20526;-75
2023/09/22 11:10:27;;;;;;;1999.90;999.90;;;16.90;99.90;;;;;;5076983;28;20450;-75
2023/09/22 11:12:54;;;;;;;1999.90;999.90;;;17.00;99.90;;;;;;5077067;28;20072;-75
2023/09/22 11:15:20;;;;;;;1999.90;999.90;;;16.90;99.90;;;;;;5075540;28;20033;-76
2023/09/22 11:17:47;;;;;;;1999.90;999.90;;;17.00;99.90;;;;;;5076965;28;20029;-76
2023/09/22 11:20:27;;;;;;;1999.90;999.90;;;16.60;99.90;;;;;;5077092;28;20036;-76
2023/09/22 11:22:53;;;;;;;1999.90;999.90;;;16.20;99.90;;;;;;5076643;28;20029;-75
2023/09/22 11:25:21;;;;;;;1999.90;999.90;;;16.10;99.90;;;;;;5075914;28;20102;-75
2023/09/22 11:27:48;;;;;;;1999.90;999.90;;;16.00;99.90;;;;;;5075572;28;20037;-75
2023/09/22 11:30:26;;;;;;;1999.90;999.90;;;15.80;99.90;;;;;;5076796;28;20033;-75
2023/09/22 11:32:53;;;;;;;1999.90;999.90;;;15.80;99.90;;;;;;5076572;28;20064;-75
2023/09/22 11:35:39;;;;;;;1999.90;999.90;;;15.70;99.90;;;;;;5076597;28;20021;-76
2023/09/22 11:38:24;;;;;;;1999.90;999.90;;;15.80;99.90;;;;;;5074727;28;20033;-76
2023/09/22 11:41:10;;;;;;;1999.90;999.90;;;15.80;99.90;;;;;;5074401;28;20032;-76
2023/09/22 11:43:40;;;;;;;1999.90;999.90;;;15.70;99.90;;;;;;5076340;28;20841;-76
2023/09/22 11:46:14;;;;;;;1999.90;999.90;;;16.10;99.90;;;;;;5076218;28;20036;-76
2023/09/22 11:49:08;;;;;;;1999.90;999.90;;;16.40;99.90;;;;;;5075871;28;20029;-76
2023/09/22 11:51:52;;;;;;;1999.90;999.90;;;16.50;99.90;;;;;;5076473;28;20119;-77
2023/09/22 11:54:23;;;;;;;1999.90;999.90;;;17.00;99.90;;;;;;5076080;28;20037;-77
2023/09/22 11:56:50;;;;;;;1999.90;999.90;;;17.40;99.90;;;;;;5075980;28;20077;-77
2023/09/22 11:59:20;;;;;;;1999.90;999.90;;;17.10;99.90;;;;;;5074722;28;20032;-76
2023/09/22 12:01:49;;;;;;;1999.90;999.90;;;16.90;99.90;;;;;;5075842;28;20497;-77
2023/09/22 12:04:16;;;;;;;1999.90;999.90;;;17.30;99.90;;;;;;5076335;28;20041;-77